TAF KTUP
KTUP 090523Z 0906/1006 VRB03KT P6SM FEW250 FM091200 17009KT P6SM BKN250 FM091500 19010G16KT P6SM OVC100 FM091800 21010G18KT P6SM OVC015 FM100000 17006KT 4SM -DZ BR OVC007 FM100300 17005KT 4SM -DZ BR OVC005=
METAR KTUP
WC KTUP
WS KTUP
WV KTUP